Weather at Guelph Airport

Public forecast

Using degrees Celsius for public forecast. Weather courtesy of forecast.io.

Closest aviation weather report (METAR) to Guelph Airport

Closest report is Waterloo Airport, 10.1 nm (18.7 km) SW. Retrieved 2020/11/28 12:00 UTC (59 minutes ago):

CYKF 281200Z AUTO 28009KT 9SM FEW048 01/M02 A2998 RMK SLP163

Closest aviation forecast (TAF) to Guelph Airport

Closest forecast is Waterloo Airport, 10.1 nm (18.7 km) SW. Retrieved 2020/11/28 14:39 UTC (0 seconds ago):

TAF CYKF 281338Z 2814/2902 28008KT P6SM FEW050 TEMPO 2814/2818 BKN050 BECMG 2814/2816 27010G20KT FM281900 25010G20KT P6SM FEW030 SCT250 BECMG 2821/2823 24010KT RMK FCST BASED ON AUTO OBS NXT FCST BY 282000Z